Detall de PIREP

Printer-friendly versionPDF version

[2011/04/30 15:29:00]
Flight IATA:CT1001
Pilot Number:042
Company ICAO:CAT
Aircraft Type:AT72/F
PAX:30
Departing Airport: LIEA
Destination Airport: LEIB
Alternate Airport:LEPA
Online: VATSIM
Route:SUPUX Z924 RIPAL M603 MORSS
Flight Level:F230
No Slew and time accel
No pause
Crash detect
Detect pilot in Cockpit between each 30 and 45 minutes
15:29 Zero fuel Weight: 37063 Lbs, Fuel Weight: 11201 Lbs
15:29 VATSIM:LIEA 301450Z 03018KT 9999 -RA FEW012 BKN030 15/15 Q0997
15:29 VATSIM:LEIB 301500Z 30011KT 9999 FEW022 SCT030 20/14 Q1002 NOSIG
15:29 VOICE CATALONINA/MEDITERRANEAN ODYSSEY
15:48 Parking Brakes off
15:54 Take-off
15:54 Take off Weight: 48161 Lbs
15:54 Wind: 030 @ 017 Knots Heading: 026
15:54 POS N40 37 49 E008 17 23
15:54 Flaps:1 at 140 Knots
15:54 Gear Up: 141 Knots
15:54 Flaps:0 at 122 Knots
16:09 Wind:159@006 Knots Heading: 258 Ground Speed:279 Knots Altitude 20856 ft
16:11 TOC
16:11 Fuel Weight: 10467 Lb
16:24 Wind:233@008 Knots Heading: 258 Ground Speed: 306 Knots Altitude 22601 ft
16:39 Wind:233@008 Knots Heading: 254 Ground Speed: 303 Knots Altitude 22637 ft
16:52 TOD
16:52 Fuel Weight: 9253 Lb
16:54 Wind:269@005 Knots Heading: 249 Ground Speed: 277 Knots Altitude 20551 ft
17:09 Wind:052@007 Knots Heading: 237 Ground Speed: 211 Knots Altitude 2700 ft
17:12 Gear Down: 192 Knots
17:12 Flaps:1 at 192 Knots
17:13 Flaps:2 at 145 Knots
17:15 TouchDown:Rate -180 ft/min Speed: 94 Knots
17:16 VATSIM:LEIB 301700Z 32006KT 280V350 9999 FEW022 BKN028 20/14 Q1003 NOSIG
17:16 Land
17:16 Wind:319@006 Knots
17:16 Heading: 238
17:16 Flight Duration: 01:22
17:16 Landing Weight: 46069 Lbs
17:16 POS N38 52 22 E001 22 24
17:17 Parking brakes on
17:17 Block to Block Duration: 01:29
17:17 Final Fuel: 8999 Lbls
17:17 Spent Fuel: 2202 Lbls
17:17 Flight Length: 285 NM
17:17 TOD Land Length: 87 NM

Exportar CSV

Powered by Drupal - Modified by Danger4k